createdAt,value
2022-09-18T00:01:28.856Z,2.30
2022-09-18T00:03:57.957Z,2.30
2022-09-18T00:06:27.307Z,2.88
2022-09-18T00:08:55.427Z,2.33
2022-09-18T00:11:24.411Z,2.72
2022-09-18T00:13:51.523Z,1.98
2022-09-18T00:16:20.217Z,2.25
2022-09-18T00:18:54.828Z,2.30
2022-09-18T00:21:26.243Z,1.88
2022-09-18T00:23:56.025Z,2.03
2022-09-18T00:26:23.057Z,1.63
2022-09-18T00:28:52.500Z,1.70
2022-09-18T00:31:24.525Z,2.47
2022-09-18T00:33:54.819Z,1.80
2022-09-18T00:36:22.065Z,1.80
2022-09-18T00:38:51.955Z,1.60
2022-09-18T00:41:27.546Z,1.50
2022-09-18T00:44:14.049Z,1.98
2022-09-18T00:46:42.310Z,1.50
2022-09-18T00:49:19.091Z,1.10
2022-09-18T00:51:48.321Z,1.23
2022-09-18T00:54:22.651Z,1.17
2022-09-18T00:56:54.135Z,1.25
2022-09-18T00:59:25.037Z,0.80
2022-09-18T01:01:51.852Z,0.60
2022-09-18T01:04:18.553Z,0.60
2022-09-18T01:07:17.608Z,0.70
2022-09-18T01:10:02.268Z,0.60
2022-09-18T01:12:40.085Z,1.05
2022-09-18T01:15:22.844Z,0.40
2022-09-18T01:17:58.473Z,0.60
2022-09-18T01:20:41.130Z,0.50
2022-09-18T01:23:17.386Z,0.40
2022-09-18T01:26:01.576Z,0.40
2022-09-18T01:28:38.514Z,0.25
2022-09-18T01:31:09.426Z,0.28
2022-09-18T01:33:45.308Z,0.40
2022-09-18T01:36:16.040Z,0.30
2022-09-18T01:38:48.464Z,0.30
2022-09-18T01:41:20.983Z,0.30
2022-09-18T01:43:55.423Z,0.38
2022-09-18T01:46:22.707Z,0.55
2022-09-18T01:49:03.311Z,0.25
2022-09-18T01:51:36.246Z,0.35
2022-09-18T01:54:12.722Z,0.25
2022-09-18T01:56:44.663Z,0.40
2022-09-18T01:59:15.385Z,0.30
2022-09-18T02:01:43.766Z,0.38
2022-09-18T02:04:23.358Z,0.22
2022-09-18T02:07:17.894Z,0.40
2022-09-18T02:09:44.716Z,0.30
2022-09-18T02:12:16.881Z,0.43
2022-09-18T02:14:47.136Z,0.30
2022-09-18T02:17:37.185Z,0.40
2022-09-18T02:20:10.341Z,0.32
2022-09-18T02:22:37.880Z,0.38
2022-09-18T02:25:08.566Z,0.52
2022-09-18T02:27:37.150Z,0.63
2022-09-18T02:30:06.348Z,0.32
2022-09-18T02:32:36.125Z,0.50
2022-09-18T02:35:03.218Z,0.60
2022-09-18T02:37:36.891Z,0.47
2022-09-18T02:40:10.199Z,0.80
2022-09-18T02:42:49.501Z,0.60
2022-09-18T02:45:41.224Z,0.65
2022-09-18T02:48:19.952Z,0.80
2022-09-18T02:50:56.544Z,0.80
2022-09-18T02:53:30.377Z,0.90
2022-09-18T02:56:08.050Z,1.25
2022-09-18T02:58:50.886Z,1.30
2022-09-18T03:01:18.910Z,1.20
2022-09-18T03:03:45.857Z,1.27
2022-09-18T03:06:12.490Z,1.40
2022-09-18T03:08:39.531Z,1.50
2022-09-18T03:11:06.525Z,2.08
2022-09-18T03:13:33.205Z,1.75
2022-09-18T03:15:59.906Z,2.17
2022-09-18T03:18:26.955Z,1.70
2022-09-18T03:20:53.524Z,2.17
2022-09-18T03:23:20.195Z,1.80
2022-09-18T03:25:51.196Z,1.63
2022-09-18T03:28:18.258Z,1.88
2022-09-18T03:30:45.589Z,2.00
2022-09-18T03:33:12.225Z,2.28
2022-09-18T03:35:38.830Z,2.08
2022-09-18T03:38:05.612Z,1.88
2022-09-18T03:40:32.277Z,2.25
2022-09-18T03:43:02.339Z,1.70
2022-09-18T03:45:28.918Z,2.25
2022-09-18T03:47:55.623Z,1.90
2022-09-18T03:50:22.231Z,2.75
2022-09-18T03:52:51.278Z,2.28
2022-09-18T03:55:21.198Z,2.60
2022-09-18T03:57:47.808Z,2.53
2022-09-18T04:00:14.819Z,2.47
2022-09-18T04:02:41.948Z,2.65
2022-09-18T04:05:09.412Z,2.42
2022-09-18T04:07:36.150Z,2.55
2022-09-18T04:10:03.369Z,2.75
2022-09-18T04:12:29.990Z,2.88
2022-09-18T04:14:56.624Z,2.58
2022-09-18T04:17:23.739Z,3.00
2022-09-18T04:19:53.601Z,3.08
2022-09-18T04:22:21.701Z,3.05
2022-09-18T04:24:50.378Z,3.47
2022-09-18T04:27:17.199Z,2.97
2022-09-18T04:29:43.814Z,3.40
2022-09-18T04:32:10.481Z,2.45
2022-09-18T04:34:39.954Z,3.05
2022-09-18T04:37:10.152Z,2.55
2022-09-18T04:39:37.234Z,2.47
2022-09-18T04:42:04.811Z,2.72
2022-09-18T04:44:31.547Z,3.13
2022-09-18T04:46:58.216Z,2.92
2022-09-18T04:49:25.001Z,2.60
2022-09-18T04:51:51.707Z,2.63
2022-09-18T04:54:18.314Z,3.25
2022-09-18T04:56:44.965Z,3.28
2022-09-18T04:59:11.562Z,3.13
2022-09-18T05:01:38.333Z,2.75
2022-09-18T05:04:04.992Z,3.35
2022-09-18T05:06:31.599Z,4.45
2022-09-18T05:08:58.412Z,3.42
2022-09-18T05:11:25.006Z,3.08
2022-09-18T05:13:56.499Z,3.60
2022-09-18T05:16:24.200Z,4.05
2022-09-18T05:18:51.957Z,2.60
2022-09-18T05:21:19.113Z,3.65
2022-09-18T05:23:46.915Z,3.97
2022-09-18T05:26:13.786Z,4.07
2022-09-18T05:28:40.864Z,2.83
2022-09-18T05:31:07.544Z,3.53
2022-09-18T05:33:34.305Z,3.47
2022-09-18T05:36:03.804Z,2.85
2022-09-18T05:38:31.682Z,3.92
2022-09-18T05:41:01.924Z,3.35
2022-09-18T05:43:29.182Z,3.22
2022-09-18T05:45:56.016Z,3.97
2022-09-18T05:48:22.800Z,3.03
2022-09-18T05:50:51.900Z,3.97
2022-09-18T05:53:20.057Z,3.63
2022-09-18T05:55:47.049Z,2.83
2022-09-18T05:58:15.714Z,3.45
2022-09-18T06:00:44.764Z,2.78
2022-09-18T06:03:13.527Z,3.85
2022-09-18T06:05:40.685Z,3.38
2022-09-18T06:08:12.507Z,3.08
2022-09-18T06:10:40.345Z,3.47
2022-09-18T06:13:09.200Z,3.92
2022-09-18T06:15:36.540Z,2.78
2022-09-18T06:18:04.212Z,3.33
2022-09-18T06:20:30.827Z,2.67
2022-09-18T06:23:01.336Z,3.17
2022-09-18T06:25:31.609Z,3.42
2022-09-18T06:28:00.268Z,3.42
2022-09-18T06:30:28.560Z,2.70
2022-09-18T06:32:56.942Z,2.55
2022-09-18T06:35:23.681Z,3.17
2022-09-18T06:37:50.304Z,2.80
2022-09-18T06:40:17.022Z,2.80
2022-09-18T06:42:46.066Z,3.20
2022-09-18T06:45:12.945Z,2.88
2022-09-18T06:47:39.631Z,2.97
2022-09-18T06:50:08.072Z,2.67
2022-09-18T06:52:34.784Z,2.30
2022-09-18T06:55:01.475Z,2.90
2022-09-18T06:57:28.197Z,2.58
2022-09-18T06:59:54.821Z,2.50
2022-09-18T07:02:21.727Z,2.72
2022-09-18T07:04:49.569Z,2.60
2022-09-18T07:07:16.184Z,2.25
2022-09-18T07:09:42.856Z,2.53
2022-09-18T07:12:09.477Z,3.05
2022-09-18T07:14:36.321Z,2.40
2022-09-18T07:17:03.291Z,2.00
2022-09-18T07:19:29.979Z,3.47
2022-09-18T07:21:56.597Z,2.35
2022-09-18T07:24:23.233Z,2.17
2022-09-18T07:26:49.887Z,3.72
2022-09-18T07:29:16.631Z,2.10
2022-09-18T07:31:43.309Z,2.55
2022-09-18T07:34:12.136Z,2.05
2022-09-18T07:36:38.970Z,2.13
2022-09-18T07:39:05.611Z,2.15
2022-09-18T07:41:32.293Z,1.92
2022-09-18T07:43:59.754Z,2.45
2022-09-18T07:46:26.475Z,2.45
2022-09-18T07:48:53.110Z,2.08
2022-09-18T07:51:23.048Z,2.05
2022-09-18T07:53:52.728Z,2.58
2022-09-18T07:56:19.491Z,1.90
2022-09-18T07:58:46.120Z,2.00
2022-09-18T08:01:12.781Z,3.17
2022-09-18T08:03:41.547Z,2.05
2022-09-18T08:06:11.293Z,1.90
2022-09-18T08:08:37.954Z,1.80
2022-09-18T08:11:04.714Z,1.50
2022-09-18T08:13:32.183Z,2.28
2022-09-18T08:15:58.990Z,1.77
2022-09-18T08:18:25.838Z,2.00
2022-09-18T08:20:56.272Z,1.33
2022-09-18T08:23:23.100Z,1.70
2022-09-18T08:25:49.997Z,1.90
2022-09-18T08:28:19.842Z,1.98
2022-09-18T08:30:46.593Z,1.85
2022-09-18T08:33:13.340Z,1.80
2022-09-18T08:35:40.041Z,2.03
2022-09-18T08:38:07.932Z,1.55
2022-09-18T08:41:05.678Z,1.77
2022-09-18T08:43:52.200Z,2.47
2022-09-18T08:46:42.476Z,1.67
2022-09-18T08:49:23.304Z,1.60
2022-09-18T08:52:06.409Z,2.25
2022-09-18T08:54:55.518Z,1.33
2022-09-18T08:57:29.201Z,1.80
2022-09-18T09:00:10.560Z,1.67
2022-09-18T09:02:39.940Z,2.03
2022-09-18T09:05:10.471Z,1.38
2022-09-18T09:08:20.515Z,1.63
2022-09-18T09:11:07.387Z,1.60
2022-09-18T09:13:49.894Z,1.38
2022-09-18T09:16:24.253Z,1.58
2022-09-18T09:19:27.002Z,1.85
2022-09-18T09:22:07.916Z,2.25
2022-09-18T09:25:02.565Z,1.50
2022-09-18T09:27:34.739Z,2.13
2022-09-18T09:30:12.101Z,1.92
2022-09-18T09:32:49.160Z,1.98
2022-09-18T09:35:31.934Z,1.80
2022-09-18T09:38:05.118Z,1.83
2022-09-18T09:40:50.574Z,1.50
2022-09-18T09:43:31.519Z,2.28
2022-09-18T09:46:03.406Z,1.83
2022-09-18T09:49:03.111Z,1.73
2022-09-18T09:51:57.447Z,1.77
2022-09-18T09:54:24.900Z,1.50
2022-09-18T09:57:17.221Z,2.22
2022-09-18T10:00:21.259Z,1.65
2022-09-18T10:03:27.942Z,1.48
2022-09-18T10:06:24.147Z,1.95
2022-09-18T10:08:56.998Z,1.33
2022-09-18T10:11:23.886Z,2.40
2022-09-18T10:14:03.755Z,1.35
2022-09-18T10:16:34.598Z,1.30
2022-09-18T10:19:01.563Z,1.63
2022-09-18T10:21:29.173Z,1.52
2022-09-18T10:24:04.002Z,1.48
2022-09-18T10:26:36.252Z,1.40
2022-09-18T10:29:03.014Z,1.42
2022-09-18T10:31:50.236Z,1.40
2022-09-18T10:34:45.038Z,2.65
2022-09-18T10:40:02.216Z,4.32
2022-09-18T10:45:01.668Z,2.53
2022-09-18T10:47:34.028Z,3.10
2022-09-18T10:50:06.817Z,1.20
2022-09-18T10:52:36.688Z,1.55
2022-09-18T10:55:06.334Z,1.42
2022-09-18T10:57:38.402Z,2.35
2022-09-18T11:00:25.553Z,5.05
2022-09-18T11:03:01.218Z,1.92
2022-09-18T11:05:37.038Z,5.22
2022-09-18T11:08:14.307Z,1.83
2022-09-18T11:10:48.048Z,2.05
2022-09-18T11:13:23.227Z,2.30
2022-09-18T11:16:02.434Z,1.90
2022-09-18T11:18:31.435Z,2.10
2022-09-18T11:21:01.096Z,1.92
2022-09-18T11:23:33.801Z,1.58
2022-09-18T11:26:20.200Z,1.50
2022-09-18T11:29:16.578Z,2.05
2022-09-18T11:31:50.190Z,1.20
2022-09-18T11:34:44.301Z,2.08
2022-09-18T11:37:16.126Z,1.23
2022-09-18T11:39:45.582Z,1.30
2022-09-18T11:42:14.251Z,1.30
2022-09-18T11:44:41.023Z,0.93
2022-09-18T11:47:13.556Z,1.10
2022-09-18T11:49:43.537Z,1.10
2022-09-18T11:52:38.591Z,1.05
2022-09-18T11:55:14.422Z,1.25
2022-09-18T11:57:48.487Z,1.05
2022-09-18T12:00:18.854Z,1.15
2022-09-18T12:03:19.252Z,1.25
2022-09-18T12:06:02.239Z,1.45
2022-09-18T12:08:40.313Z,1.10
2022-09-18T12:11:12.879Z,1.55
2022-09-18T12:13:57.539Z,1.17
2022-09-18T12:16:45.994Z,1.15
2022-09-18T12:19:33.200Z,1.67
2022-09-18T12:22:20.058Z,1.73
2022-09-18T12:24:47.102Z,2.15
2022-09-18T12:27:36.576Z,1.98
2022-09-18T12:30:11.958Z,1.30
2022-09-18T12:33:13.280Z,1.30
2022-09-18T12:35:58.854Z,1.50
2022-09-18T12:38:33.551Z,1.55
2022-09-18T12:41:31.683Z,1.63
2022-09-18T12:44:16.619Z,1.40
2022-09-18T12:47:06.386Z,1.90
2022-09-18T12:49:36.017Z,1.98
2022-09-18T12:52:10.911Z,3.30
2022-09-18T12:54:46.566Z,2.20
2022-09-18T12:57:32.511Z,2.58
2022-09-18T13:00:18.559Z,2.47
2022-09-18T13:03:13.886Z,2.38
2022-09-18T13:05:47.638Z,1.52
2022-09-18T13:08:24.705Z,2.97
2022-09-18T13:10:54.834Z,5.68
2022-09-18T13:13:46.973Z,2.30
2022-09-18T13:16:35.513Z,2.88
2022-09-18T13:19:09.156Z,1.98
2022-09-18T13:21:38.194Z,1.48
2022-09-18T13:24:06.131Z,2.53
2022-09-18T13:26:36.671Z,1.67
2022-09-18T13:29:24.231Z,2.65
2022-09-18T13:31:53.640Z,1.70
2022-09-18T13:34:23.899Z,1.60
2022-09-18T13:36:50.624Z,3.00
2022-09-18T13:39:28.832Z,1.92
2022-09-18T13:41:57.902Z,1.83
2022-09-18T13:44:29.172Z,1.33
2022-09-18T13:47:14.080Z,1.88
2022-09-18T13:50:15.952Z,2.03
2022-09-18T13:52:43.363Z,2.40
2022-09-18T13:55:13.037Z,2.72
2022-09-18T13:57:43.885Z,2.35
2022-09-18T14:00:20.189Z,1.60
2022-09-18T14:02:48.104Z,1.13
2022-09-18T14:05:29.572Z,1.10
2022-09-18T14:08:14.590Z,1.20
2022-09-18T14:11:04.997Z,1.13
2022-09-18T14:13:37.851Z,1.38
2022-09-18T14:16:25.933Z,1.08
2022-09-18T14:18:56.899Z,1.10
2022-09-18T14:21:26.827Z,1.20
2022-09-18T14:24:44.534Z,1.35
2022-09-18T14:27:30.150Z,1.00
2022-09-18T14:30:00.003Z,1.10
2022-09-18T14:32:27.661Z,1.55
2022-09-18T14:35:22.985Z,1.85
2022-09-18T14:37:49.670Z,1.33
2022-09-18T14:40:24.801Z,1.33
2022-09-18T14:42:52.486Z,1.13
2022-09-18T14:45:25.020Z,1.30
2022-09-18T14:47:51.765Z,1.42
2022-09-18T14:50:29.729Z,1.73
2022-09-18T14:52:57.966Z,1.63
2022-09-18T14:55:47.070Z,1.20
2022-09-18T14:58:16.212Z,1.00
2022-09-18T15:00:44.004Z,1.27
2022-09-18T15:03:22.365Z,1.20
2022-09-18T15:05:52.235Z,1.38
2022-09-18T15:08:25.958Z,1.08
2022-09-18T15:10:53.789Z,1.10
2022-09-18T15:13:21.769Z,1.40
2022-09-18T15:16:00.957Z,0.98
2022-09-18T15:18:29.347Z,1.20
2022-09-18T15:20:58.197Z,1.15
2022-09-18T15:23:29.094Z,0.93
2022-09-18T15:25:58.758Z,1.35
2022-09-18T15:28:27.718Z,1.23
2022-09-18T15:30:58.120Z,1.55
2022-09-18T15:33:27.332Z,1.17
2022-09-18T15:35:55.239Z,0.90
2022-09-18T15:38:24.921Z,1.58
2022-09-18T15:40:52.231Z,0.80
2022-09-18T15:43:31.115Z,0.90
2022-09-18T15:46:25.167Z,0.85
2022-09-18T15:48:52.323Z,0.90
2022-09-18T15:51:28.233Z,0.93
2022-09-18T15:54:26.944Z,1.40
2022-09-18T15:56:58.425Z,0.90
2022-09-18T15:59:39.276Z,0.90
2022-09-18T16:02:29.307Z,0.90
2022-09-18T16:04:56.325Z,1.05
2022-09-18T16:07:27.094Z,1.00
2022-09-18T16:09:56.489Z,0.80
2022-09-18T16:12:34.911Z,0.93
2022-09-18T16:15:04.448Z,0.88
2022-09-18T16:17:54.053Z,1.05
2022-09-18T16:20:28.380Z,0.90
2022-09-18T16:22:58.310Z,1.20
2022-09-18T16:25:29.884Z,0.98
2022-09-18T16:27:59.003Z,1.17
2022-09-18T16:30:27.022Z,0.90
2022-09-18T16:33:07.146Z,1.35
2022-09-18T16:35:33.726Z,1.15
2022-09-18T16:38:00.422Z,0.95
2022-09-18T16:40:28.121Z,2.05
2022-09-18T16:42:58.523Z,2.35
2022-09-18T16:45:27.044Z,1.95
2022-09-18T16:47:58.752Z,1.40
2022-09-18T16:50:27.093Z,1.42
2022-09-18T16:52:54.844Z,1.35
2022-09-18T16:55:23.536Z,1.25
2022-09-18T16:57:51.464Z,1.10
2022-09-18T17:00:18.149Z,1.42
2022-09-18T17:02:44.922Z,1.33
2022-09-18T17:05:11.556Z,1.50
2022-09-18T17:07:38.179Z,1.85
2022-09-18T17:10:05.379Z,2.20
2022-09-18T17:12:31.991Z,2.90
2022-09-18T17:14:58.659Z,2.13
2022-09-18T17:17:25.334Z,1.63
2022-09-18T17:19:52.014Z,2.05
2022-09-18T17:22:22.439Z,1.80
2022-09-18T17:24:51.291Z,1.40
2022-09-18T17:27:18.613Z,1.00
2022-09-18T17:29:45.233Z,1.00
2022-09-18T17:32:12.570Z,1.10
2022-09-18T17:34:39.249Z,1.25
2022-09-18T17:37:06.000Z,0.98
2022-09-18T17:39:32.619Z,1.60
2022-09-18T17:41:59.450Z,2.00
2022-09-18T17:44:27.432Z,1.70
2022-09-18T17:46:54.471Z,2.35
2022-09-18T17:49:21.689Z,2.47
2022-09-18T17:51:48.608Z,1.98
2022-09-18T17:54:16.942Z,2.03
2022-09-18T17:56:43.638Z,2.20
2022-09-18T17:59:11.333Z,1.97
2022-09-18T18:01:41.948Z,2.20
2022-09-18T18:04:08.901Z,1.60
2022-09-18T18:06:36.876Z,1.60
2022-09-18T18:09:06.234Z,1.60
2022-09-18T18:11:33.194Z,1.20
2022-09-18T18:14:00.347Z,1.48
2022-09-18T18:16:31.102Z,1.77
2022-09-18T18:19:03.519Z,1.15
2022-09-18T18:21:31.804Z,1.10
2022-09-18T18:24:09.020Z,0.87
2022-09-18T18:26:39.565Z,1.38
2022-09-18T18:29:10.916Z,1.25
2022-09-18T18:31:39.741Z,1.27
2022-09-18T18:34:10.470Z,1.10
2022-09-18T18:36:38.869Z,1.47
2022-09-18T18:39:09.783Z,0.90
2022-09-18T18:41:37.049Z,1.23
2022-09-18T18:44:05.733Z,1.03
2022-09-18T18:46:36.374Z,0.97
2022-09-18T18:49:09.082Z,1.47
2022-09-18T18:51:38.927Z,1.23
2022-09-18T18:54:06.014Z,1.10
2022-09-18T18:56:35.057Z,1.30
2022-09-18T18:59:03.206Z,1.40
2022-09-18T19:01:31.079Z,1.23
2022-09-18T19:04:00.062Z,1.17
2022-09-18T19:06:30.401Z,1.30
2022-09-18T19:09:01.615Z,1.00
2022-09-18T19:11:30.930Z,1.13
2022-09-18T19:13:57.664Z,1.00
2022-09-18T19:16:27.910Z,1.20
2022-09-18T19:18:59.759Z,1.10
2022-09-18T19:21:29.455Z,1.13
2022-09-18T19:23:59.170Z,1.03
2022-09-18T19:26:30.183Z,1.27
2022-09-18T19:28:58.825Z,0.90
2022-09-18T19:31:27.050Z,1.10
2022-09-18T19:33:53.818Z,1.10
2022-09-18T19:36:23.923Z,1.20
2022-09-18T19:38:55.547Z,1.37
2022-09-18T19:41:46.134Z,1.30
2022-09-18T19:44:34.712Z,1.30
2022-09-18T19:47:19.535Z,1.30
2022-09-18T19:49:46.561Z,1.10
2022-09-18T19:52:18.667Z,1.00
2022-09-18T19:54:46.769Z,1.10
2022-09-18T19:57:13.839Z,0.97
2022-09-18T19:59:40.464Z,1.03
2022-09-18T20:02:08.661Z,1.20
2022-09-18T20:04:38.125Z,1.30
2022-09-18T20:07:07.977Z,1.30
2022-09-18T20:09:34.600Z,1.30
2022-09-18T20:12:01.920Z,1.00
2022-09-18T20:14:28.881Z,1.10
2022-09-18T20:16:55.773Z,1.20
2022-09-18T20:19:24.302Z,1.00
2022-09-18T20:21:51.270Z,1.00
2022-09-18T20:24:19.370Z,1.00
2022-09-18T20:26:46.040Z,0.80
2022-09-18T20:29:16.390Z,1.00
2022-09-18T20:31:43.430Z,0.80
2022-09-18T20:34:11.143Z,0.90
2022-09-18T20:36:38.224Z,1.00
2022-09-18T20:39:05.056Z,0.70
2022-09-18T20:41:31.997Z,1.00
2022-09-18T20:44:05.104Z,0.80
2022-09-18T20:46:37.130Z,0.93
2022-09-18T20:49:04.805Z,0.70
2022-09-18T20:51:34.704Z,0.93
2022-09-18T20:54:03.431Z,1.20
2022-09-18T20:56:36.250Z,0.90
2022-09-18T20:59:05.266Z,1.00
2022-09-18T21:01:35.232Z,1.00
2022-09-18T21:04:02.786Z,0.90
2022-09-18T21:06:33.653Z,0.90
2022-09-18T21:09:04.284Z,1.00
2022-09-18T21:11:34.515Z,1.00
2022-09-18T21:14:03.371Z,1.00
2022-09-18T21:16:32.665Z,1.07
2022-09-18T21:19:01.822Z,0.87
2022-09-18T21:21:30.934Z,0.80
2022-09-18T21:24:04.215Z,0.80
2022-09-18T21:26:42.253Z,1.10
2022-09-18T21:29:23.576Z,0.87
2022-09-18T21:31:53.090Z,1.00
2022-09-18T21:34:31.196Z,1.13
2022-09-18T21:36:59.734Z,0.90
2022-09-18T21:39:29.870Z,1.00
2022-09-18T21:41:57.920Z,0.80
2022-09-18T21:44:28.901Z,1.00
2022-09-18T21:47:02.015Z,1.00
2022-09-18T21:49:29.342Z,0.63
2022-09-18T21:51:57.829Z,1.13
2022-09-18T21:54:24.857Z,1.10
2022-09-18T21:56:51.996Z,0.80
2022-09-18T21:59:25.554Z,0.90
2022-09-18T22:01:54.770Z,0.80
2022-09-18T22:04:26.161Z,1.40
2022-09-18T22:06:55.494Z,1.00
2022-09-18T22:09:25.157Z,0.93
2022-09-18T22:11:52.342Z,1.70
2022-09-18T22:14:28.617Z,0.80
2022-09-18T22:16:56.457Z,0.90
2022-09-18T22:19:23.145Z,1.00
2022-09-18T22:21:51.059Z,1.20
2022-09-18T22:24:20.164Z,0.70
2022-09-18T22:26:49.911Z,1.10
2022-09-18T22:29:20.488Z,0.90
2022-09-18T22:31:47.845Z,1.07
2022-09-18T22:34:17.395Z,1.20
2022-09-18T22:36:45.114Z,1.17
2022-09-18T22:39:12.785Z,1.47
2022-09-18T22:41:39.529Z,1.20
2022-09-18T22:44:09.207Z,1.00
2022-09-18T22:46:37.484Z,0.93
2022-09-18T22:49:05.568Z,1.30
2022-09-18T22:51:32.599Z,0.90
2022-09-18T22:54:04.705Z,1.10
2022-09-18T22:56:31.870Z,2.53
2022-09-18T22:59:02.090Z,1.23
2022-09-18T23:01:31.951Z,1.23
2022-09-18T23:03:59.936Z,1.00
2022-09-18T23:06:30.467Z,1.00
2022-09-18T23:09:00.404Z,1.40
2022-09-18T23:11:30.746Z,1.73
2022-09-18T23:14:00.110Z,1.47
2022-09-18T23:16:28.787Z,1.47
2022-09-18T23:18:58.119Z,1.30
2022-09-18T23:21:27.028Z,1.40
2022-09-18T23:23:56.830Z,1.00
2022-09-18T23:26:28.082Z,1.30
2022-09-18T23:28:57.623Z,1.20
2022-09-18T23:31:28.263Z,1.40
2022-09-18T23:33:57.166Z,1.27
2022-09-18T23:36:26.381Z,1.33
2022-09-18T23:38:54.834Z,1.30
2022-09-18T23:41:25.267Z,1.70
2022-09-18T23:43:53.691Z,1.40
2022-09-18T23:46:22.003Z,1.27
2022-09-18T23:48:54.802Z,1.33
2022-09-18T23:51:29.553Z,1.30
2022-09-18T23:53:57.185Z,1.57
2022-09-18T23:56:24.182Z,1.37
2022-09-18T23:58:54.739Z,1.40
